createdAt,value
2018-03-26T00:02:05.324Z,58.03
2018-03-26T00:04:34.044Z,57.23
2018-03-26T00:07:02.358Z,56.89
2018-03-26T00:09:30.696Z,57.23
2018-03-26T00:11:59.056Z,57.08
2018-03-26T00:14:27.376Z,58.10
2018-03-26T00:16:56.417Z,58.12
2018-03-26T00:19:24.740Z,58.42
2018-03-26T00:21:53.072Z,59.08
2018-03-26T00:24:21.408Z,58.82
2018-03-26T00:26:50.163Z,58.71
2018-03-26T00:29:18.465Z,59.21
2018-03-26T00:31:47.558Z,59.52
2018-03-26T00:34:15.911Z,59.55
2018-03-26T00:36:44.426Z,59.81
2018-03-26T00:39:12.741Z,59.53
2018-03-26T00:41:41.106Z,59.96
2018-03-26T00:44:09.480Z,60.04
2018-03-26T00:46:37.843Z,59.80
2018-03-26T00:49:06.400Z,60.09
2018-03-26T00:51:34.732Z,60.46
2018-03-26T00:54:03.039Z,60.79
2018-03-26T00:56:31.398Z,60.43
2018-03-26T00:58:59.745Z,60.52
2018-03-26T01:01:28.043Z,60.96
2018-03-26T01:03:56.395Z,60.25
2018-03-26T01:06:24.698Z,60.01
2018-03-26T01:08:53.004Z,60.57
2018-03-26T01:11:21.727Z,60.58
2018-03-26T01:13:50.862Z,60.61
2018-03-26T01:16:19.156Z,61.32
2018-03-26T01:18:47.486Z,60.72
2018-03-26T01:21:16.591Z,60.63
2018-03-26T01:23:45.660Z,61.11
2018-03-26T01:26:13.993Z,60.93
2018-03-26T01:28:42.347Z,61.34
2018-03-26T01:31:10.856Z,61.65
2018-03-26T01:33:39.381Z,61.39
2018-03-26T01:36:07.696Z,61.49
2018-03-26T01:38:36.053Z,61.37
2018-03-26T01:41:05.532Z,61.42
2018-03-26T01:43:33.880Z,61.29
2018-03-26T01:46:02.231Z,61.30
2018-03-26T01:48:30.607Z,61.76
2018-03-26T01:50:59.700Z,61.36
2018-03-26T01:53:28.784Z,61.48
2018-03-26T01:55:57.408Z,61.88
2018-03-26T01:58:25.731Z,61.80
2018-03-26T02:00:54.063Z,61.38
2018-03-26T02:03:22.392Z,61.77
2018-03-26T02:05:50.724Z,61.54
2018-03-26T02:08:19.045Z,61.98
2018-03-26T02:10:47.407Z,62.22
2018-03-26T02:13:15.741Z,62.53
2018-03-26T02:18:13.026Z,61.70
2018-03-26T02:20:41.359Z,61.99
2018-03-26T02:23:10.465Z,62.59
2018-03-26T02:25:39.635Z,62.91
2018-03-26T02:28:08.039Z,62.54
2018-03-26T02:30:37.147Z,62.12
2018-03-26T02:33:06.296Z,61.90
2018-03-26T02:35:34.638Z,62.00
2018-03-26T02:38:02.979Z,62.08
2018-03-26T02:40:32.249Z,61.58
2018-03-26T02:43:00.968Z,62.29
2018-03-26T02:45:29.304Z,63.04
2018-03-26T02:47:57.664Z,62.46
2018-03-26T02:50:26.013Z,62.74
2018-03-26T02:52:54.342Z,62.98
2018-03-26T02:55:22.727Z,62.44
2018-03-26T02:57:51.115Z,62.57
2018-03-26T03:00:19.444Z,62.52
2018-03-26T03:02:48.302Z,62.36
2018-03-26T03:05:16.661Z,62.91
2018-03-26T03:07:45.012Z,63.08
2018-03-26T03:10:13.354Z,63.26
2018-03-26T03:12:42.425Z,63.33
2018-03-26T03:15:10.770Z,64.19
2018-03-26T03:17:39.124Z,64.23
2018-03-26T03:20:08.238Z,64.61
2018-03-26T03:22:36.577Z,65.02
2018-03-26T03:25:05.932Z,65.13
2018-03-26T03:27:34.245Z,65.26
2018-03-26T03:30:02.589Z,64.81
2018-03-26T03:32:30.942Z,65.02
2018-03-26T03:34:59.259Z,64.79
2018-03-26T03:37:27.595Z,65.61
2018-03-26T03:39:55.947Z,66.02
2018-03-26T03:42:24.308Z,66.26
2018-03-26T03:44:52.644Z,66.06
2018-03-26T03:47:21.592Z,65.87
2018-03-26T03:49:49.924Z,66.25
2018-03-26T03:52:18.275Z,66.74
2018-03-26T03:54:47.389Z,67.34
2018-03-26T03:57:15.721Z,67.52
2018-03-26T03:59:44.066Z,67.43
2018-03-26T04:02:12.430Z,67.26
2018-03-26T04:04:40.795Z,67.79
2018-03-26T04:07:09.127Z,67.90
2018-03-26T04:09:37.937Z,68.01
2018-03-26T04:12:06.242Z,68.12
2018-03-26T04:14:34.572Z,68.18
2018-03-26T04:17:02.928Z,68.09
2018-03-26T04:19:31.282Z,68.13
2018-03-26T04:21:59.612Z,68.59
2018-03-26T04:24:28.008Z,68.31
2018-03-26T04:26:56.439Z,68.11
2018-03-26T04:29:24.779Z,67.35
2018-03-26T04:31:53.472Z,66.89
2018-03-26T04:34:21.808Z,66.84
2018-03-26T04:36:50.145Z,66.61
2018-03-26T04:39:18.523Z,66.35
2018-03-26T04:41:46.849Z,66.72
2018-03-26T04:44:15.226Z,66.18
2018-03-26T04:46:43.557Z,65.98
2018-03-26T04:49:11.859Z,65.92
2018-03-26T04:51:40.184Z,65.76
2018-03-26T04:54:08.964Z,65.51
2018-03-26T04:56:37.301Z,65.61
2018-03-26T04:59:05.674Z,66.03
2018-03-26T05:01:34.048Z,65.69
2018-03-26T05:04:02.387Z,65.07
2018-03-26T05:06:31.472Z,64.44
2018-03-26T05:08:59.915Z,65.19
2018-03-26T05:11:28.362Z,64.81
2018-03-26T05:13:57.025Z,64.70
2018-03-26T05:16:25.702Z,64.28
2018-03-26T05:18:53.998Z,64.46
2018-03-26T05:21:22.340Z,64.20
2018-03-26T05:23:50.701Z,65.05
2018-03-26T05:26:19.060Z,64.98
2018-03-26T05:28:47.409Z,65.08
2018-03-26T05:31:15.786Z,64.87
2018-03-26T05:33:44.089Z,64.30
2018-03-26T05:36:12.437Z,64.83
2018-03-26T05:38:40.844Z,63.84
2018-03-26T05:41:09.192Z,63.87
2018-03-26T05:43:37.509Z,64.00
2018-03-26T05:46:05.857Z,63.52
2018-03-26T05:48:34.204Z,63.91
2018-03-26T05:51:02.510Z,64.09
2018-03-26T05:53:31.136Z,63.86
2018-03-26T05:55:59.446Z,64.47
2018-03-26T05:58:27.818Z,64.90
2018-03-26T06:00:56.532Z,64.98
2018-03-26T06:03:24.868Z,65.57
2018-03-26T06:05:53.186Z,64.86
2018-03-26T06:08:21.535Z,65.48
2018-03-26T06:10:49.887Z,65.52
2018-03-26T06:13:18.223Z,65.28
2018-03-26T06:15:46.558Z,65.33
2018-03-26T06:18:14.911Z,65.33
2018-03-26T06:20:43.260Z,64.88
2018-03-26T06:23:11.644Z,64.71
2018-03-26T06:25:40.120Z,64.46
2018-03-26T06:28:08.446Z,64.21
2018-03-26T06:30:36.848Z,63.22
2018-03-26T06:33:05.895Z,63.15
2018-03-26T06:35:35.154Z,63.25
2018-03-26T06:38:09.123Z,64.05
2018-03-26T06:40:37.453Z,64.65
2018-03-26T06:43:05.804Z,65.05
2018-03-26T06:45:34.376Z,64.83
2018-03-26T06:48:02.688Z,65.25
2018-03-26T06:50:31.012Z,65.22
2018-03-26T06:53:00.159Z,64.79
2018-03-26T06:55:28.491Z,64.10
2018-03-26T06:57:56.844Z,63.93
2018-03-26T07:00:25.208Z,63.20
2018-03-26T07:02:53.536Z,62.18
2018-03-26T07:05:21.918Z,61.75
2018-03-26T07:07:50.550Z,62.76
2018-03-26T07:10:18.818Z,61.91
2018-03-26T07:12:47.121Z,61.70
2018-03-26T07:15:15.462Z,61.56
2018-03-26T07:17:43.797Z,61.58
2018-03-26T07:20:13.003Z,61.94
2018-03-26T07:22:41.361Z,60.90
2018-03-26T07:25:09.715Z,60.17
2018-03-26T07:27:38.040Z,60.41
2018-03-26T07:30:07.336Z,60.22
2018-03-26T07:32:36.503Z,60.31
2018-03-26T07:35:04.822Z,60.96
2018-03-26T07:37:33.183Z,60.43
2018-03-26T07:40:01.517Z,60.72
2018-03-26T07:42:29.845Z,60.50
2018-03-26T07:44:58.205Z,59.80
2018-03-26T07:47:26.517Z,59.95
2018-03-26T07:49:55.620Z,59.50
2018-03-26T07:52:24.582Z,61.08
2018-03-26T07:54:52.974Z,61.73
2018-03-26T07:57:21.321Z,60.16
2018-03-26T07:59:49.686Z,59.29
2018-03-26T08:02:18.069Z,58.54
2018-03-26T08:04:46.373Z,58.63
2018-03-26T08:07:15.526Z,58.59
2018-03-26T08:09:43.889Z,58.95
2018-03-26T08:12:12.271Z,59.58
2018-03-26T08:14:40.850Z,59.40
2018-03-26T08:17:09.486Z,59.41
2018-03-26T08:19:37.857Z,59.65
2018-03-26T08:22:06.186Z,59.13
2018-03-26T08:24:34.532Z,59.06
2018-03-26T08:27:02.846Z,59.52
2018-03-26T08:29:31.201Z,59.34
2018-03-26T08:31:59.532Z,59.45
2018-03-26T08:34:27.852Z,59.23
2018-03-26T08:36:57.121Z,58.71
2018-03-26T08:39:25.457Z,58.04
2018-03-26T08:41:53.801Z,57.96
2018-03-26T08:44:22.627Z,58.14
2018-03-26T08:46:50.972Z,58.55
2018-03-26T08:49:19.362Z,59.28
2018-03-26T08:51:47.651Z,59.09
2018-03-26T08:54:16.713Z,59.31
2018-03-26T08:56:45.021Z,59.31
2018-03-26T08:59:14.633Z,59.35
2018-03-26T09:01:42.976Z,60.31
2018-03-26T09:04:12.112Z,60.65
2018-03-26T09:06:40.444Z,62.09
2018-03-26T09:09:08.766Z,61.31
2018-03-26T09:11:37.079Z,62.69
2018-03-26T09:14:05.417Z,62.53
2018-03-26T09:16:34.529Z,62.00
2018-03-26T09:19:02.890Z,61.63
2018-03-26T09:21:31.559Z,61.40
2018-03-26T09:23:59.909Z,60.99
2018-03-26T09:26:28.223Z,60.93
2018-03-26T09:28:56.566Z,61.12
2018-03-26T09:31:24.920Z,60.63
2018-03-26T09:33:53.258Z,59.88
2018-03-26T09:36:21.623Z,60.61
2018-03-26T09:38:49.951Z,61.03
2018-03-26T09:41:18.279Z,59.96
2018-03-26T09:43:47.108Z,60.07
2018-03-26T09:46:15.604Z,59.75
2018-03-26T09:48:44.027Z,60.62
2018-03-26T09:51:12.480Z,60.58
2018-03-26T09:53:40.861Z,62.77
2018-03-26T09:56:09.249Z,61.63
2018-03-26T09:58:37.612Z,60.46
2018-03-26T10:01:11.465Z,59.96
2018-03-26T10:03:40.040Z,59.89
2018-03-26T10:06:08.380Z,60.41
2018-03-26T10:08:36.723Z,59.82
2018-03-26T10:11:05.869Z,60.06
2018-03-26T10:13:34.185Z,60.61
2018-03-26T10:16:02.570Z,60.74
2018-03-26T10:18:31.685Z,61.09
2018-03-26T10:21:00.041Z,60.23
2018-03-26T10:23:29.155Z,59.89
2018-03-26T10:25:57.893Z,60.33
2018-03-26T10:28:26.254Z,60.09
2018-03-26T10:30:54.630Z,59.85
2018-03-26T10:33:22.962Z,59.73
2018-03-26T10:35:52.207Z,59.90
2018-03-26T10:38:20.548Z,59.37
2018-03-26T10:40:49.653Z,59.38
2018-03-26T10:43:17.970Z,59.60
2018-03-26T10:45:46.295Z,59.34
2018-03-26T10:48:15.183Z,59.10
2018-03-26T10:50:43.511Z,59.31
2018-03-26T10:53:12.817Z,60.07
2018-03-26T10:55:41.186Z,59.38
2018-03-26T10:58:09.486Z,60.09
2018-03-26T11:00:37.790Z,60.01
2018-03-26T11:03:06.160Z,59.75
2018-03-26T11:05:34.528Z,59.12
2018-03-26T11:08:02.851Z,58.70
2018-03-26T11:10:32.075Z,59.34
2018-03-26T11:13:00.566Z,59.99
2018-03-26T11:15:29.735Z,60.18
2018-03-26T11:17:58.076Z,60.19
2018-03-26T11:20:26.429Z,60.02
2018-03-26T11:22:54.748Z,59.31
2018-03-26T11:25:23.091Z,60.10
2018-03-26T11:27:51.410Z,60.21
2018-03-26T11:30:20.683Z,60.04
2018-03-26T11:32:49.497Z,60.35
2018-03-26T11:35:18.604Z,59.70
2018-03-26T11:37:47.033Z,59.95
2018-03-26T11:40:15.397Z,60.38
2018-03-26T11:42:43.718Z,60.02
2018-03-26T11:45:12.110Z,59.89
2018-03-26T11:47:41.252Z,59.79
2018-03-26T11:50:09.584Z,59.61
2018-03-26T11:52:38.657Z,59.83
2018-03-26T11:55:07.490Z,58.98
2018-03-26T11:57:35.813Z,58.31
2018-03-26T12:00:04.185Z,58.28
2018-03-26T12:02:32.551Z,58.83
2018-03-26T12:05:01.704Z,59.06
2018-03-26T12:07:30.115Z,59.06
2018-03-26T12:09:58.456Z,58.58
2018-03-26T12:12:26.918Z,58.76
2018-03-26T12:14:56.036Z,59.51
2018-03-26T12:17:24.467Z,59.58
2018-03-26T12:20:10.488Z,59.62
2018-03-26T12:22:38.865Z,59.35
2018-03-26T12:25:22.131Z,59.22
2018-03-26T12:28:08.096Z,58.77
2018-03-26T12:30:36.485Z,59.21
2018-03-26T12:33:04.802Z,58.64
2018-03-26T12:38:42.784Z,58.41
2018-03-26T12:41:11.131Z,59.10
2018-03-26T12:43:39.501Z,59.13
2018-03-26T12:46:25.523Z,58.09
2018-03-26T12:48:53.899Z,58.27
2018-03-26T12:51:40.425Z,59.38
2018-03-26T12:54:08.730Z,58.79
2018-03-26T12:56:37.115Z,58.98
2018-03-26T12:59:05.473Z,58.25
2018-03-26T13:01:52.309Z,58.39
2018-03-26T13:04:20.744Z,58.91
2018-03-26T13:06:49.161Z,58.54
2018-03-26T13:09:17.537Z,58.52
2018-03-26T13:11:46.095Z,57.97
2018-03-26T13:14:14.420Z,57.71
2018-03-26T13:16:42.749Z,57.43
2018-03-26T13:19:11.163Z,57.81
2018-03-26T13:24:13.847Z,59.06
2018-03-26T13:26:42.926Z,60.02
2018-03-26T13:29:11.454Z,59.95
2018-03-26T13:31:40.132Z,59.68
2018-03-26T13:34:08.463Z,58.92
2018-03-26T13:36:36.811Z,58.22
2018-03-26T13:39:05.162Z,57.76
2018-03-26T13:41:33.540Z,56.84
2018-03-26T13:44:01.876Z,57.45
2018-03-26T13:46:30.208Z,57.28
2018-03-26T13:48:58.538Z,57.32
2018-03-26T13:51:26.880Z,57.64
2018-03-26T13:53:55.841Z,57.96
2018-03-26T13:56:24.193Z,58.42
2018-03-26T13:58:52.496Z,58.50
2018-03-26T14:01:20.862Z,58.10
2018-03-26T14:03:49.212Z,57.57
2018-03-26T14:06:17.597Z,56.95
2018-03-26T14:09:03.646Z,58.12
2018-03-26T14:11:49.528Z,58.11
2018-03-26T14:14:35.576Z,58.20
2018-03-26T14:20:17.266Z,57.11
2018-03-26T14:22:45.594Z,56.21
2018-03-26T14:25:13.962Z,56.94
2018-03-26T14:27:42.765Z,58.22
2018-03-26T14:30:11.104Z,57.97
2018-03-26T14:32:39.450Z,58.41
2018-03-26T14:38:26.482Z,58.47
2018-03-26T14:40:54.898Z,58.24
2018-03-26T14:43:23.220Z,58.73
2018-03-26T14:45:52.297Z,58.76
2018-03-26T14:48:21.009Z,58.09
2018-03-26T14:50:49.348Z,59.01
2018-03-26T14:53:17.696Z,58.72
2018-03-26T14:55:46.043Z,58.43
2018-03-26T14:58:16.551Z,57.76
2018-03-26T15:00:44.939Z,57.37
2018-03-26T15:03:14.079Z,57.00
2018-03-26T15:05:42.421Z,57.58
2018-03-26T15:08:10.743Z,57.39
2018-03-26T15:10:39.311Z,57.15
2018-03-26T15:13:07.644Z,57.40
2018-03-26T15:15:35.969Z,56.85
2018-03-26T15:18:04.317Z,56.74
2018-03-26T15:20:33.478Z,56.23
2018-03-26T15:23:01.828Z,55.70
2018-03-26T15:25:30.165Z,55.37
2018-03-26T15:27:59.275Z,55.22
2018-03-26T15:30:28.420Z,55.25
2018-03-26T15:32:57.164Z,54.91
2018-03-26T15:35:25.507Z,55.01
2018-03-26T15:37:53.877Z,54.63
2018-03-26T15:40:22.265Z,54.05
2018-03-26T15:42:51.387Z,53.51
2018-03-26T15:45:20.490Z,53.08
2018-03-26T15:47:49.612Z,53.28
2018-03-26T15:50:17.952Z,52.77
2018-03-26T15:52:46.292Z,52.31
2018-03-26T15:55:15.115Z,52.31
2018-03-26T15:57:43.486Z,52.50
2018-03-26T16:00:12.628Z,52.75
2018-03-26T16:02:46.365Z,53.14
2018-03-26T16:05:14.678Z,54.12
2018-03-26T16:07:43.021Z,53.39
2018-03-26T16:10:11.437Z,53.14
2018-03-26T16:12:40.535Z,52.94
2018-03-26T16:15:09.625Z,53.26
2018-03-26T16:17:38.412Z,53.81
2018-03-26T16:20:06.791Z,54.11
2018-03-26T16:22:35.966Z,54.05
2018-03-26T16:25:04.314Z,54.48
2018-03-26T16:27:32.676Z,55.03
2018-03-26T16:30:01.030Z,55.30
2018-03-26T16:32:29.401Z,55.40
2018-03-26T16:34:57.714Z,55.50
2018-03-26T16:37:26.252Z,56.61
2018-03-26T16:39:54.670Z,56.34
2018-03-26T16:42:26.017Z,56.17
2018-03-26T16:44:55.120Z,56.58
2018-03-26T16:47:23.537Z,56.29
2018-03-26T16:49:51.872Z,56.65
2018-03-26T16:52:21.018Z,56.05
2018-03-26T16:54:49.376Z,55.65
2018-03-26T16:57:17.699Z,56.26
2018-03-26T16:59:46.518Z,56.40
2018-03-26T17:02:14.876Z,57.47
2018-03-26T17:04:43.245Z,57.28
2018-03-26T17:07:11.615Z,57.37
2018-03-26T17:09:39.950Z,57.12
2018-03-26T17:12:08.295Z,56.75
2018-03-26T17:14:37.416Z,56.74
2018-03-26T17:17:05.780Z,56.89
2018-03-26T17:19:34.135Z,57.19
2018-03-26T17:22:02.802Z,57.30
2018-03-26T17:24:31.128Z,57.22
2018-03-26T17:26:59.479Z,57.24
2018-03-26T17:29:27.893Z,57.89
2018-03-26T17:31:56.249Z,57.90
2018-03-26T17:34:25.373Z,58.17
2018-03-26T17:36:53.738Z,58.45
2018-03-26T17:39:22.848Z,58.42
2018-03-26T17:41:51.145Z,58.71
2018-03-26T17:44:19.671Z,59.22
2018-03-26T17:46:48.008Z,59.14
2018-03-26T17:49:16.359Z,58.75
2018-03-26T17:51:44.692Z,58.48
2018-03-26T17:54:13.034Z,58.10
2018-03-26T17:56:41.381Z,57.99
2018-03-26T17:59:10.527Z,58.34
2018-03-26T18:01:38.852Z,59.10
2018-03-26T18:04:07.208Z,58.78
2018-03-26T18:06:35.788Z,58.93
2018-03-26T18:09:04.122Z,59.04
2018-03-26T18:11:32.455Z,58.52
2018-03-26T18:14:00.840Z,58.16
2018-03-26T18:16:29.189Z,58.34
2018-03-26T18:18:57.504Z,58.41
2018-03-26T18:21:25.861Z,59.00
2018-03-26T18:23:55.135Z,59.79
2018-03-26T18:26:23.488Z,59.80
2018-03-26T18:28:52.894Z,59.66
2018-03-26T18:31:21.256Z,59.73
2018-03-26T18:33:50.381Z,59.62
2018-03-26T18:36:18.750Z,59.49
2018-03-26T18:38:47.111Z,59.31
2018-03-26T18:41:16.177Z,59.92
2018-03-26T18:43:44.571Z,60.93
2018-03-26T18:46:12.878Z,61.61
2018-03-26T18:48:41.993Z,61.52
2018-03-26T18:51:10.659Z,61.18
2018-03-26T18:53:39.036Z,60.92
2018-03-26T18:56:08.115Z,61.76
2018-03-26T18:58:36.480Z,61.70
2018-03-26T19:01:04.846Z,61.64
2018-03-26T19:03:33.198Z,60.73
2018-03-26T19:06:01.569Z,60.10
2018-03-26T19:08:29.909Z,60.14
2018-03-26T19:10:58.993Z,60.30
2018-03-26T19:13:27.474Z,60.55
2018-03-26T19:15:55.811Z,60.15
2018-03-26T19:18:24.141Z,59.76
2018-03-26T19:20:53.586Z,60.75
2018-03-26T19:23:21.936Z,61.44
2018-03-26T19:25:51.026Z,61.47
2018-03-26T19:28:20.155Z,61.34
2018-03-26T19:30:50.072Z,61.67
2018-03-26T19:33:18.389Z,61.50
2018-03-26T19:35:47.635Z,61.54
2018-03-26T19:38:15.979Z,61.36
2018-03-26T19:40:47.494Z,61.84
2018-03-26T19:43:15.881Z,62.04
2018-03-26T19:45:44.230Z,62.43
2018-03-26T19:48:12.580Z,62.43
2018-03-26T19:50:41.762Z,63.15
2018-03-26T19:53:10.162Z,63.88
2018-03-26T19:55:38.462Z,64.16
2018-03-26T19:58:07.229Z,63.91
2018-03-26T20:00:35.561Z,64.15
2018-03-26T20:03:03.902Z,64.61
2018-03-26T20:05:32.263Z,64.40
2018-03-26T20:08:00.620Z,64.47
2018-03-26T20:10:28.988Z,64.37
2018-03-26T20:12:57.430Z,65.04
2018-03-26T20:15:26.205Z,65.13
2018-03-26T20:17:54.580Z,66.08
2018-03-26T20:20:23.021Z,65.73
2018-03-26T20:22:51.399Z,65.86
2018-03-26T20:25:19.756Z,66.93
2018-03-26T20:27:48.142Z,67.35
2018-03-26T20:30:16.466Z,67.08
2018-03-26T20:32:45.559Z,66.88
2018-03-26T20:35:14.725Z,66.36
2018-03-26T20:37:43.046Z,66.15
2018-03-26T20:40:12.134Z,66.36
2018-03-26T20:42:40.607Z,66.10
2018-03-26T20:45:09.290Z,66.87
2018-03-26T20:47:37.639Z,66.80
2018-03-26T20:50:05.997Z,67.03
2018-03-26T20:52:34.346Z,67.19
2018-03-26T20:55:03.469Z,67.35
2018-03-26T20:57:31.850Z,68.64
2018-03-26T21:02:57.300Z,68.34
2018-03-26T21:05:25.672Z,68.12
2018-03-26T21:07:54.026Z,68.25
2018-03-26T21:10:22.410Z,68.35
2018-03-26T21:12:50.773Z,67.87
2018-03-26T21:15:19.132Z,68.40
2018-03-26T21:17:47.513Z,68.60
2018-03-26T21:20:15.881Z,68.60
2018-03-26T21:22:44.236Z,68.42
2018-03-26T21:25:12.700Z,68.07
2018-03-26T21:27:41.111Z,67.65
2018-03-26T21:30:09.604Z,67.40
2018-03-26T21:32:38.032Z,66.97
2018-03-26T21:35:06.382Z,67.57
2018-03-26T21:37:35.478Z,68.58
2018-03-26T21:40:04.641Z,68.50
2018-03-26T21:42:32.988Z,68.46
2018-03-26T21:45:01.532Z,68.95
2018-03-26T21:47:30.426Z,68.57
2018-03-26T21:49:59.893Z,69.18
2018-03-26T21:52:28.192Z,69.29
2018-03-26T21:54:56.556Z,70.12
2018-03-26T21:57:24.912Z,70.30
2018-03-26T21:59:53.272Z,70.25
2018-03-26T22:02:21.649Z,70.71
2018-03-26T22:04:50.041Z,70.38
2018-03-26T22:07:18.603Z,70.56
2018-03-26T22:09:47.516Z,70.96
2018-03-26T22:12:15.885Z,71.93
2018-03-26T22:14:44.266Z,72.53
2018-03-26T22:17:12.646Z,72.87
2018-03-26T22:19:41.034Z,72.28
2018-03-26T22:22:09.603Z,72.09
2018-03-26T22:24:38.772Z,72.12
2018-03-26T22:27:07.126Z,71.94
2018-03-26T22:29:35.461Z,72.00
2018-03-26T22:32:04.953Z,72.41
2018-03-26T22:34:34.048Z,71.97
2018-03-26T22:37:03.138Z,72.91
2018-03-26T22:39:31.538Z,74.05
2018-03-26T22:41:59.857Z,73.87
2018-03-26T22:44:28.174Z,73.07
2018-03-26T22:46:56.528Z,72.03
2018-03-26T22:49:25.358Z,71.07
2018-03-26T22:51:53.714Z,71.04
2018-03-26T22:54:22.136Z,70.58
2018-03-26T22:56:50.451Z,70.56
2018-03-26T22:59:18.801Z,70.87
2018-03-26T23:01:47.169Z,70.76
2018-03-26T23:04:15.604Z,70.84
2018-03-26T23:06:44.061Z,70.73
2018-03-26T23:09:12.502Z,71.10
2018-03-26T23:11:40.967Z,70.95
2018-03-26T23:14:09.350Z,70.44
2018-03-26T23:16:38.569Z,71.27
2018-03-26T23:19:06.903Z,72.70
2018-03-26T23:21:35.205Z,72.58
2018-03-26T23:24:04.651Z,72.61
2018-03-26T23:26:33.165Z,72.00
2018-03-26T23:29:01.733Z,70.96
2018-03-26T23:31:30.078Z,70.67
2018-03-26T23:33:58.410Z,70.96
2018-03-26T23:36:26.736Z,70.90
2018-03-26T23:38:55.158Z,71.11
2018-03-26T23:41:23.500Z,71.78
2018-03-26T23:43:51.894Z,71.79
2018-03-26T23:46:20.233Z,71.52
2018-03-26T23:48:49.329Z,71.45
2018-03-26T23:51:18.433Z,71.78
2018-03-26T23:53:47.552Z,72.37
2018-03-26T23:56:15.886Z,72.18
2018-03-26T23:58:44.239Z,71.68
